MY20 weather

Prudential Helistop
Plymouth, Minnesota, United States

Public forecast

Using degrees Fahrenheit for public forecast. Weather courtesy of forecast.io.

Closest aviation weather report (METAR) to Prudential Helistop

Closest report is Crystal Airport, 4.0 nm (7.4 km) E. Retrieved 2020/04/08 19:53 UTC (51 minutes ago):

KMIC 081953Z 31019G31KT 10SM CLR 13/M08 A2981 RMK AO2 PK WND 27033/1857 SLP099 T01281078

Closest aviation forecast (TAF) to Prudential Helistop

Forecast is more than 12 hours old.

Closest forecast is Anoka County-Blaine (Janes Field) Airport, 11.2 nm (20.7 km) ENE. Retrieved 2018/02/05 00:21 UTC (2 years ago):

TAF KANE 052320Z 0600/0624 28008KT P6SM FEW025 FM060300 30005KT P6SM FEW250 FM061600 21005KT P6SM SCT250 AMD NOT SKED